createdAt,value
2018-06-14T00:00:47.628Z,10.73
2018-06-14T00:03:22.755Z,11.30
2018-06-14T00:05:56.305Z,10.47
2018-06-14T00:08:29.094Z,11.07
2018-06-14T00:11:01.704Z,14.33
2018-06-14T00:13:34.347Z,11.57
2018-06-14T00:16:07.961Z,11.87
2018-06-14T00:18:40.518Z,11.33
2018-06-14T00:21:13.018Z,14.13
2018-06-14T00:23:45.753Z,10.07
2018-06-14T00:26:20.948Z,13.43
2018-06-14T00:28:53.937Z,10.13
2018-06-14T00:31:29.362Z,12.07
2018-06-14T00:34:01.878Z,10.37
2018-06-14T00:36:35.034Z,13.30
2018-06-14T00:39:10.457Z,12.83
2018-06-14T00:41:43.313Z,12.77
2018-06-14T00:44:15.821Z,12.87
2018-06-14T00:46:48.581Z,11.97
2018-06-14T00:49:21.951Z,11.70
2018-06-14T00:51:56.028Z,10.30
2018-06-14T00:54:31.408Z,10.70
2018-06-14T00:57:23.332Z,12.50
2018-06-14T00:59:56.260Z,11.97
2018-06-14T01:02:29.069Z,10.93
2018-06-14T01:05:01.857Z,15.97
2018-06-14T01:07:35.625Z,10.23
2018-06-14T01:10:08.568Z,13.93
2018-06-14T01:12:41.044Z,15.20
2018-06-14T01:15:19.165Z,11.37
2018-06-14T01:17:54.271Z,13.68
2018-06-14T01:20:26.987Z,13.00
2018-06-14T01:23:00.514Z,16.80
2018-06-14T01:25:33.730Z,15.27
2018-06-14T01:28:06.413Z,11.23
2018-06-14T01:30:44.688Z,13.60
2018-06-14T01:33:19.195Z,13.13
2018-06-14T01:35:54.204Z,9.37
2018-06-14T01:38:27.712Z,9.98
2018-06-14T01:41:00.262Z,10.60
2018-06-14T01:43:33.692Z,10.30
2018-06-14T01:46:06.693Z,11.13
2018-06-14T01:48:39.359Z,11.77
2018-06-14T01:51:11.707Z,8.73
2018-06-14T01:53:44.540Z,12.93
2018-06-14T01:56:17.055Z,10.77
2018-06-14T01:58:49.754Z,24.60
2018-06-14T02:01:22.592Z,14.90
2018-06-14T02:03:55.233Z,14.23
2018-06-14T02:06:27.504Z,12.83
2018-06-14T02:09:01.892Z,12.80
2018-06-14T02:11:35.101Z,13.00
2018-06-14T02:14:07.817Z,15.85
2018-06-14T02:16:42.098Z,13.40
2018-06-14T02:19:14.589Z,14.43
2018-06-14T02:21:49.344Z,15.13
2018-06-14T02:24:22.912Z,12.13
2018-06-14T02:26:58.661Z,16.50
2018-06-14T02:29:31.838Z,12.80
2018-06-14T02:32:05.314Z,16.83
2018-06-14T02:34:37.746Z,15.47
2018-06-14T02:37:11.133Z,12.70
2018-06-14T02:39:44.345Z,19.50
2018-06-14T02:42:22.001Z,15.52
2018-06-14T02:44:54.406Z,16.20
2018-06-14T02:47:27.209Z,20.08
2018-06-14T02:50:00.092Z,16.17
2018-06-14T02:52:36.090Z,15.53
2018-06-14T02:55:09.439Z,16.00
2018-06-14T02:57:42.002Z,18.97
2018-06-14T03:00:15.688Z,23.00
2018-06-14T03:02:48.396Z,16.63
2018-06-14T03:05:20.852Z,13.53
2018-06-14T03:07:53.106Z,19.17
2018-06-14T03:10:25.890Z,14.27
2018-06-14T03:12:59.081Z,19.07
2018-06-14T03:15:31.503Z,28.73
2018-06-14T03:18:04.052Z,29.00
2018-06-14T03:20:36.376Z,22.80
2018-06-14T03:23:08.724Z,17.13
2018-06-14T03:25:41.388Z,17.20
2018-06-14T03:28:13.596Z,17.37
2018-06-14T03:30:47.342Z,22.27
2018-06-14T03:33:20.569Z,23.07
2018-06-14T03:35:52.815Z,23.43
2018-06-14T03:38:25.589Z,23.83
2018-06-14T03:40:59.337Z,23.97
2018-06-14T03:43:31.615Z,22.20
2018-06-14T03:46:05.371Z,26.33
2018-06-14T03:48:38.092Z,19.03
2018-06-14T03:51:10.629Z,22.93
2018-06-14T03:53:42.905Z,20.47
2018-06-14T03:56:17.282Z,15.83
2018-06-14T03:58:49.486Z,19.67
2018-06-14T04:01:21.856Z,33.33
2018-06-14T04:03:54.660Z,23.27
2018-06-14T04:06:29.101Z,19.40
2018-06-14T04:09:02.205Z,17.80
2018-06-14T04:11:34.936Z,18.30
2018-06-14T04:14:07.452Z,20.40
2018-06-14T04:16:39.843Z,16.27
2018-06-14T04:19:12.464Z,15.20
2018-06-14T04:21:44.766Z,14.10
2018-06-14T04:24:16.996Z,16.73
2018-06-14T04:26:49.833Z,23.10
2018-06-14T04:29:22.046Z,25.97
2018-06-14T04:31:54.398Z,24.50
2018-06-14T04:34:27.041Z,24.87
2018-06-14T04:36:59.958Z,30.40
2018-06-14T04:39:32.131Z,28.73
2018-06-14T04:42:06.768Z,28.23
2018-06-14T04:44:38.973Z,24.03
2018-06-14T04:47:11.249Z,21.30
2018-06-14T04:49:44.734Z,21.67
2018-06-14T04:52:17.044Z,21.93
2018-06-14T04:54:49.364Z,22.70
2018-06-14T04:57:22.608Z,21.67
2018-06-14T04:59:54.796Z,22.50
2018-06-14T05:02:27.331Z,18.03
2018-06-14T05:04:59.538Z,18.33
2018-06-14T05:07:31.873Z,19.50
2018-06-14T05:10:04.894Z,18.23
2018-06-14T05:12:37.149Z,15.27
2018-06-14T05:15:09.877Z,17.47
2018-06-14T05:17:43.506Z,17.20
2018-06-14T05:20:15.748Z,20.40
2018-06-14T05:22:49.720Z,20.57
2018-06-14T05:25:21.993Z,18.80
2018-06-14T05:27:57.064Z,15.90
2018-06-14T05:30:29.776Z,14.63
2018-06-14T05:33:02.632Z,15.20
2018-06-14T05:35:34.988Z,16.00
2018-06-14T05:38:07.877Z,13.73
2018-06-14T05:40:40.103Z,14.50
2018-06-14T05:43:13.183Z,12.63
2018-06-14T05:45:45.857Z,13.33
2018-06-14T05:48:21.572Z,13.43
2018-06-14T05:50:54.751Z,12.93
2018-06-14T05:53:47.740Z,12.27
2018-06-14T05:56:20.045Z,12.77
2018-06-14T05:58:52.649Z,13.83
2018-06-14T06:01:25.094Z,18.60
2018-06-14T06:03:57.352Z,13.37
2018-06-14T06:06:29.577Z,14.47
2018-06-14T06:09:03.693Z,18.47
2018-06-14T06:11:36.868Z,15.83
2018-06-14T06:14:09.532Z,14.97
2018-06-14T06:16:43.619Z,18.67
2018-06-14T06:19:15.853Z,15.67
2018-06-14T06:21:48.567Z,14.23
2018-06-14T06:24:27.898Z,17.57
2018-06-14T06:27:00.576Z,15.27
2018-06-14T06:29:34.012Z,16.10
2018-06-14T06:32:06.361Z,14.95
2018-06-14T06:34:38.525Z,14.32
2018-06-14T06:37:11.202Z,13.50
2018-06-14T06:39:44.411Z,17.30
2018-06-14T06:42:17.530Z,14.18
2018-06-14T06:44:50.411Z,11.10
2018-06-14T06:47:23.362Z,12.53
2018-06-14T06:49:56.089Z,13.63
2018-06-14T06:52:28.692Z,16.70
2018-06-14T06:55:00.858Z,12.60
2018-06-14T06:57:33.163Z,18.30
2018-06-14T07:00:07.229Z,14.50
2018-06-14T07:02:39.776Z,15.03
2018-06-14T07:05:12.046Z,12.40
2018-06-14T07:07:44.401Z,11.53
2018-06-14T07:10:18.007Z,12.20
2018-06-14T07:12:53.343Z,21.60
2018-06-14T07:15:26.347Z,15.70
2018-06-14T07:17:59.185Z,12.10
2018-06-14T07:20:32.053Z,11.90
2018-06-14T07:23:05.103Z,10.30
2018-06-14T07:25:37.697Z,9.10
2018-06-14T07:28:10.577Z,11.10
2018-06-14T07:30:45.854Z,11.43
2018-06-14T07:33:19.267Z,8.67
2018-06-14T07:35:52.296Z,15.07
2018-06-14T07:38:24.529Z,11.30
2018-06-14T07:40:57.372Z,10.40
2018-06-14T07:43:30.401Z,11.30
2018-06-14T07:46:03.640Z,8.63
2018-06-14T07:48:39.514Z,13.83
2018-06-14T07:51:12.127Z,9.52
2018-06-14T07:53:44.553Z,13.23
2018-06-14T07:56:16.733Z,10.83
2018-06-14T07:58:49.612Z,8.50
2018-06-14T08:01:21.821Z,10.07
2018-06-14T08:03:54.529Z,10.20
2018-06-14T08:06:26.715Z,8.87
2018-06-14T08:09:00.804Z,9.27
2018-06-14T08:11:33.515Z,10.03
2018-06-14T08:14:07.618Z,10.97
2018-06-14T08:16:43.635Z,8.13
2018-06-14T08:19:16.260Z,9.63
2018-06-14T08:21:50.378Z,10.77
2018-06-14T08:24:23.207Z,7.87
2018-06-14T08:26:55.720Z,9.63
2018-06-14T08:29:28.603Z,9.37
2018-06-14T08:32:02.985Z,9.43
2018-06-14T08:34:35.674Z,9.80
2018-06-14T08:37:08.144Z,9.90
2018-06-14T08:39:52.100Z,11.80
2018-06-14T08:42:25.525Z,7.97
2018-06-14T08:44:57.841Z,10.60
2018-06-14T08:47:30.377Z,10.77
2018-06-14T08:50:03.612Z,10.17
2018-06-14T08:52:38.829Z,10.43
2018-06-14T08:55:11.351Z,8.85
2018-06-14T08:57:44.171Z,9.23
2018-06-14T09:00:16.484Z,10.07
2018-06-14T09:02:49.133Z,10.20
2018-06-14T09:05:25.561Z,11.10
2018-06-14T09:08:01.479Z,9.50
2018-06-14T09:10:34.276Z,9.53
2018-06-14T09:13:08.347Z,8.83
2018-06-14T09:15:40.732Z,10.67
2018-06-14T09:18:12.899Z,13.83
2018-06-14T09:20:51.112Z,9.67
2018-06-14T09:23:23.289Z,11.18
2018-06-14T09:25:57.250Z,10.67
2018-06-14T09:28:29.979Z,9.80
2018-06-14T09:31:02.296Z,8.40
2018-06-14T09:33:34.525Z,7.50
2018-06-14T09:36:08.064Z,8.87
2018-06-14T09:38:41.001Z,10.90
2018-06-14T09:41:14.477Z,9.60
2018-06-14T09:43:47.126Z,8.37
2018-06-14T09:46:22.711Z,8.37
2018-06-14T09:49:01.817Z,8.63
2018-06-14T09:51:35.212Z,7.63
2018-06-14T09:54:08.036Z,11.02
2018-06-14T09:56:43.488Z,8.87
2018-06-14T09:59:15.706Z,9.73
2018-06-14T10:01:48.500Z,6.60
2018-06-14T10:04:20.688Z,7.37
2018-06-14T10:06:54.380Z,9.50
2018-06-14T10:09:28.009Z,9.33
2018-06-14T10:12:00.318Z,8.57
2018-06-14T10:14:35.525Z,7.83
2018-06-14T10:17:09.717Z,7.70
2018-06-14T10:19:43.304Z,5.90
2018-06-14T10:22:18.078Z,10.20
2018-06-14T10:24:53.123Z,5.47
2018-06-14T10:27:29.719Z,4.70
2018-06-14T10:30:13.521Z,5.95
2018-06-14T10:32:50.179Z,7.68
2018-06-14T10:35:22.394Z,8.13
2018-06-14T10:37:58.889Z,8.60
2018-06-14T10:40:34.030Z,5.87
2018-06-14T10:43:11.454Z,8.00
2018-06-14T10:45:46.669Z,7.73
2018-06-14T10:48:19.866Z,7.43
2018-06-14T10:50:54.254Z,8.63
2018-06-14T10:53:29.512Z,4.83
2018-06-14T10:56:08.024Z,8.13
2018-06-14T10:58:40.749Z,4.53
2018-06-14T11:01:14.633Z,6.53
2018-06-14T11:03:51.003Z,4.20
2018-06-14T11:06:25.671Z,4.97
2018-06-14T11:09:00.324Z,5.97
2018-06-14T11:11:35.272Z,5.70
2018-06-14T11:14:13.056Z,6.13
2018-06-14T11:16:49.107Z,3.90
2018-06-14T11:19:22.999Z,4.80
2018-06-14T11:22:04.629Z,5.50
2018-06-14T11:24:44.710Z,4.13
2018-06-14T11:27:22.281Z,7.97
2018-06-14T11:29:58.435Z,4.53
2018-06-14T11:32:35.116Z,9.30
2018-06-14T11:35:08.282Z,6.73
2018-06-14T11:37:43.738Z,5.90
2018-06-14T11:40:21.396Z,6.57
2018-06-14T11:42:56.448Z,7.60
2018-06-14T11:45:30.045Z,7.53
2018-06-14T11:48:03.026Z,5.47
2018-06-14T11:50:37.247Z,5.23
2018-06-14T11:53:09.853Z,7.30
2018-06-14T11:55:42.240Z,8.27
2018-06-14T11:58:18.546Z,3.90
2018-06-14T12:00:51.659Z,5.00
2018-06-14T12:03:25.449Z,4.80
2018-06-14T12:05:59.985Z,6.20
2018-06-14T12:08:33.476Z,6.50
2018-06-14T12:11:09.875Z,8.80
2018-06-14T12:13:43.609Z,4.70
2018-06-14T12:16:16.904Z,7.57
2018-06-14T12:18:49.638Z,8.67
2018-06-14T12:21:22.618Z,5.07
2018-06-14T12:23:59.825Z,7.87
2018-06-14T12:26:34.491Z,3.57
2018-06-14T12:29:10.225Z,5.90
2018-06-14T12:31:44.414Z,6.27
2018-06-14T12:34:19.546Z,6.27
2018-06-14T12:37:11.744Z,3.37
2018-06-14T12:39:45.552Z,7.23
2018-06-14T12:42:19.120Z,5.87
2018-06-14T12:44:56.658Z,5.17
2018-06-14T12:47:32.320Z,5.72
2018-06-14T12:50:06.221Z,6.90
2018-06-14T12:52:40.821Z,5.63
2018-06-14T12:55:16.094Z,7.33
2018-06-14T12:57:51.142Z,3.03
2018-06-14T13:00:27.202Z,6.37
2018-06-14T13:03:04.660Z,3.92
2018-06-14T13:05:43.449Z,5.33
2018-06-14T13:08:17.270Z,6.03
2018-06-14T13:10:56.957Z,6.03
2018-06-14T13:16:13.599Z,8.53
2018-06-14T13:19:05.297Z,5.37
2018-06-14T13:21:47.188Z,6.63
2018-06-14T13:24:21.780Z,5.97
2018-06-14T13:26:56.363Z,7.62
2018-06-14T13:29:29.822Z,6.87
2018-06-14T13:32:03.511Z,5.97
2018-06-14T13:34:36.878Z,4.47
2018-06-14T13:37:10.513Z,4.75
2018-06-14T13:39:44.818Z,4.97
2018-06-14T13:42:20.211Z,4.37
2018-06-14T13:44:52.590Z,4.33
2018-06-14T13:47:25.527Z,5.70
2018-06-14T13:49:59.740Z,5.43
2018-06-14T13:52:32.202Z,2.97
2018-06-14T13:55:05.559Z,6.30
2018-06-14T13:57:39.244Z,3.33
2018-06-14T14:00:16.479Z,4.50
2018-06-14T14:02:49.895Z,8.77
2018-06-14T14:05:24.786Z,4.40
2018-06-14T14:07:59.608Z,6.33
2018-06-14T14:10:34.704Z,4.83
2018-06-14T14:13:08.732Z,5.10
2018-06-14T14:15:42.086Z,4.20
2018-06-14T14:18:17.650Z,6.57
2018-06-14T14:20:51.616Z,4.43
2018-06-14T14:23:24.563Z,5.20
2018-06-14T14:25:58.511Z,5.30
2018-06-14T14:28:32.208Z,4.63
2018-06-14T14:31:05.404Z,7.07
2018-06-14T14:33:48.057Z,5.23
2018-06-14T14:36:33.594Z,5.37
2018-06-14T14:39:15.353Z,5.30
2018-06-14T14:41:51.939Z,6.20
2018-06-14T14:44:27.383Z,5.43
2018-06-14T14:47:00.938Z,7.67
2018-06-14T14:49:38.697Z,5.23
2018-06-14T14:52:13.752Z,7.30
2018-06-14T14:54:56.861Z,5.30
2018-06-14T14:57:38.356Z,6.00
2018-06-14T15:00:14.863Z,3.73
2018-06-14T15:02:57.434Z,4.27
2018-06-14T15:05:36.610Z,7.00
2018-06-14T15:08:15.304Z,5.93
2018-06-14T15:11:07.073Z,6.80
2018-06-14T15:13:42.024Z,6.30
2018-06-14T15:16:21.933Z,6.53
2018-06-14T15:19:08.210Z,6.13
2018-06-14T15:21:56.436Z,6.63
2018-06-14T15:24:42.270Z,6.50
2018-06-14T15:27:20.585Z,6.33
2018-06-14T15:30:02.964Z,6.80
2018-06-14T15:32:39.807Z,8.20
2018-06-14T15:35:16.100Z,6.60
2018-06-14T15:38:00.319Z,9.43
2018-06-14T15:40:39.288Z,9.37
2018-06-14T15:43:15.838Z,7.20
2018-06-14T15:45:51.568Z,8.03
2018-06-14T15:48:28.374Z,9.20
2018-06-14T15:51:09.961Z,10.80
2018-06-14T15:53:47.733Z,12.33
2018-06-14T15:56:39.975Z,11.10
2018-06-14T15:59:17.904Z,8.97
2018-06-14T16:02:03.514Z,9.40
2018-06-14T16:04:41.805Z,9.30
2018-06-14T16:07:25.505Z,10.50
2018-06-14T16:10:02.099Z,8.93
2018-06-14T16:12:35.405Z,8.90
2018-06-14T16:15:07.334Z,13.20
2018-06-14T16:17:48.355Z,11.80
2018-06-14T16:20:25.810Z,11.63
2018-06-14T16:23:03.189Z,11.93
2018-06-14T16:25:37.687Z,10.10
2018-06-14T16:28:12.014Z,11.30
2018-06-14T16:30:50.968Z,11.60
2018-06-14T16:33:31.694Z,11.27
2018-06-14T16:36:05.355Z,13.03
2018-06-14T16:38:42.857Z,11.27
2018-06-14T16:41:18.553Z,12.07
2018-06-14T16:43:52.677Z,11.63
2018-06-14T16:46:26.394Z,10.55
2018-06-14T16:49:00.762Z,11.37
2018-06-14T16:51:38.526Z,11.83
2018-06-14T16:54:13.293Z,13.50
2018-06-14T16:56:46.614Z,10.93
2018-06-14T16:59:20.282Z,15.63
2018-06-14T17:01:54.343Z,13.63
2018-06-14T17:04:28.289Z,12.10
2018-06-14T17:07:02.145Z,13.10
2018-06-14T17:09:50.275Z,12.37
2018-06-14T17:12:25.968Z,16.67
2018-06-14T17:14:59.358Z,14.13
2018-06-14T17:17:33.093Z,17.17
2018-06-14T17:20:09.617Z,15.10
2018-06-14T17:22:55.217Z,14.73
2018-06-14T17:25:28.606Z,16.87
2018-06-14T17:28:03.987Z,16.27
2018-06-14T17:30:41.397Z,19.37
2018-06-14T17:33:16.823Z,18.87
2018-06-14T17:35:51.207Z,16.27
2018-06-14T17:38:25.754Z,13.17
2018-06-14T17:41:01.563Z,14.53
2018-06-14T17:43:46.774Z,12.83
2018-06-14T17:46:21.453Z,12.77
2018-06-14T17:48:55.496Z,12.77
2018-06-14T17:51:32.899Z,11.57
2018-06-14T17:54:17.348Z,13.60
2018-06-14T17:56:58.919Z,16.63
2018-06-14T17:59:38.840Z,14.47
2018-06-14T18:02:27.517Z,13.13
2018-06-14T18:05:04.406Z,13.60
2018-06-14T18:07:51.165Z,14.10
2018-06-14T18:10:28.006Z,12.70
2018-06-14T18:13:05.764Z,13.10
2018-06-14T18:15:49.916Z,12.80
2018-06-14T18:18:24.436Z,11.37
2018-06-14T18:20:57.977Z,14.73
2018-06-14T18:23:36.899Z,18.27
2018-06-14T18:26:23.218Z,14.10
2018-06-14T18:29:00.373Z,15.73
2018-06-14T18:31:38.440Z,16.87
2018-06-14T18:34:12.698Z,14.90
2018-06-14T18:36:47.827Z,14.07
2018-06-14T18:39:24.323Z,12.53
2018-06-14T18:41:58.696Z,14.60
2018-06-14T18:44:32.633Z,12.67
2018-06-14T18:47:11.610Z,10.63
2018-06-14T18:49:53.376Z,9.60
2018-06-14T18:53:09.491Z,9.93
2018-06-14T18:55:45.443Z,10.15
2018-06-14T18:58:21.167Z,8.73
2018-06-14T19:00:55.826Z,10.70
2018-06-14T19:03:45.043Z,9.50
2018-06-14T19:06:20.681Z,9.87
2018-06-14T19:08:56.247Z,10.13
2018-06-14T19:11:35.606Z,9.47
2018-06-14T19:14:15.737Z,9.50
2018-06-14T19:16:50.835Z,8.77
2018-06-14T19:19:26.285Z,8.60
2018-06-14T19:22:02.548Z,12.97
2018-06-14T19:24:36.615Z,9.07
2018-06-14T19:27:09.391Z,11.70
2018-06-14T19:29:46.395Z,12.63
2018-06-14T19:32:21.199Z,11.43
2018-06-14T19:34:54.516Z,10.60
2018-06-14T19:37:34.079Z,10.68
2018-06-14T19:40:08.156Z,8.60
2018-06-14T19:42:46.597Z,10.23
2018-06-14T19:45:23.242Z,8.87
2018-06-14T19:47:59.534Z,8.73
2018-06-14T19:50:34.671Z,11.43
2018-06-14T19:53:15.741Z,11.40
2018-06-14T19:55:54.322Z,9.60
2018-06-14T19:58:33.882Z,10.95
2018-06-14T20:03:45.303Z,13.33
2018-06-14T20:06:19.538Z,10.10
2018-06-14T20:08:54.300Z,12.20
2018-06-14T20:11:26.600Z,12.57
2018-06-14T20:14:11.676Z,10.50
2018-06-14T20:16:45.401Z,12.43
2018-06-14T20:19:19.213Z,12.00
2018-06-14T20:21:54.641Z,12.40
2018-06-14T20:24:29.413Z,13.60
2018-06-14T20:27:05.391Z,13.90
2018-06-14T20:29:40.567Z,12.10
2018-06-14T20:32:19.860Z,13.17
2018-06-14T20:34:53.612Z,13.13
2018-06-14T20:37:29.049Z,13.37
2018-06-14T20:40:08.628Z,13.10
2018-06-14T20:42:46.113Z,11.77
2018-06-14T20:45:27.561Z,12.60
2018-06-14T20:48:03.662Z,13.23
2018-06-14T20:50:43.534Z,14.00
2018-06-14T20:53:25.013Z,16.47
2018-06-14T20:56:00.514Z,15.80
2018-06-14T20:58:43.050Z,16.10
2018-06-14T21:01:20.607Z,15.17
2018-06-14T21:03:58.416Z,14.80
2018-06-14T21:06:34.405Z,14.47
2018-06-14T21:09:15.265Z,15.73
2018-06-14T21:11:50.199Z,18.97
2018-06-14T21:14:24.031Z,16.87
2018-06-14T21:17:08.092Z,19.37
2018-06-14T21:19:42.013Z,19.50
2018-06-14T21:22:21.262Z,20.17
2018-06-14T21:24:58.316Z,20.73
2018-06-14T21:27:33.949Z,20.12
2018-06-14T21:30:12.668Z,19.63
2018-06-14T21:32:46.536Z,22.03
2018-06-14T21:35:27.280Z,20.90
2018-06-14T21:38:01.249Z,26.57
2018-06-14T21:40:39.376Z,28.17
2018-06-14T21:43:17.426Z,26.67
2018-06-14T21:45:54.562Z,22.63
2018-06-14T21:48:34.317Z,22.47
2018-06-14T21:51:08.148Z,25.73
2018-06-14T21:53:49.866Z,24.67
2018-06-14T21:56:28.757Z,26.43
2018-06-14T21:59:04.852Z,24.10
2018-06-14T22:01:48.206Z,21.60
2018-06-14T22:04:22.880Z,26.37
2018-06-14T22:07:00.373Z,21.37
2018-06-14T22:09:44.976Z,22.30
2018-06-14T22:12:23.169Z,23.13
2018-06-14T22:15:02.977Z,26.33
2018-06-14T22:17:38.233Z,25.10
2018-06-14T22:20:14.720Z,22.30
2018-06-14T22:22:49.673Z,22.57
2018-06-14T22:25:23.619Z,23.37
2018-06-14T22:27:56.836Z,22.77
2018-06-14T22:30:32.607Z,19.53
2018-06-14T22:33:27.763Z,20.47
2018-06-14T22:36:03.115Z,20.30
2018-06-14T22:38:41.799Z,20.37
2018-06-14T22:41:14.941Z,21.63
2018-06-14T22:43:48.302Z,22.50
2018-06-14T22:46:20.900Z,22.70
2018-06-14T22:48:54.479Z,19.17
2018-06-14T22:52:03.608Z,22.30
2018-06-14T22:54:48.296Z,22.95
2018-06-14T22:57:21.817Z,22.70
2018-06-14T22:59:55.367Z,19.77
2018-06-14T23:02:28.564Z,23.80
2018-06-14T23:05:01.898Z,23.43
2018-06-14T23:07:37.793Z,23.87
2018-06-14T23:10:33.715Z,20.70
2018-06-14T23:13:10.940Z,20.45
2018-06-14T23:15:43.463Z,19.70
2018-06-14T23:18:21.778Z,23.37
2018-06-14T23:20:56.454Z,20.63
2018-06-14T23:23:29.558Z,20.83
2018-06-14T23:26:09.800Z,17.57
2018-06-14T23:28:45.262Z,20.33
2018-06-14T23:31:19.376Z,18.13
2018-06-14T23:33:53.117Z,19.17
2018-06-14T23:36:27.748Z,19.17
2018-06-14T23:39:01.813Z,21.20
2018-06-14T23:41:47.268Z,20.50
2018-06-14T23:44:21.564Z,19.07
2018-06-14T23:46:54.877Z,18.13
2018-06-14T23:49:28.488Z,18.10
2018-06-14T23:52:01.950Z,20.10
2018-06-14T23:54:35.934Z,20.07
2018-06-14T23:57:10.324Z,22.23
2018-06-14T23:59:44.994Z,22.93
